Time;durP1;ratioP1;P1;durP2;ratioP2;P2;SDS_P1;SDS_P2;PMS_P1;PMS_P2;Temp;Humidity;BMP_temperature;BMP_pressure;BME280_temperature;BME280_humidity;BME280_pressure;Samples;Min_cycle;Max_cycle;Signal;HPM_P1;HPM_P2
2022/08/26 00:00:59;;;;;;;11.38;9.70;;;;;;;21.90;60.73;99761.96;1620470;88;21137;-72
2022/08/26 00:03:25;;;;;;;13.38;10.63;;;;;;;21.90;60.64;99754.30;1587567;88;21043;-73
2022/08/26 00:05:52;;;;;;;27.10;10.43;;;;;;;21.87;60.71;99753.59;1587061;88;21497;-76
2022/08/26 00:08:20;;;;;;;10.75;9.65;;;;;;;21.86;60.46;99753.34;1584170;88;21083;-70
2022/08/26 00:10:46;;;;;;;12.78;10.38;;;;;;;21.86;60.38;99759.63;1583689;90;21052;-72
2022/08/26 00:13:14;;;;;;;14.05;10.40;;;;;;;21.84;60.46;99752.29;1600289;89;21071;-71
2022/08/26 00:15:42;;;;;;;11.12;9.35;;;;;;;21.84;60.48;99755.59;1609409;89;21052;-71
2022/08/26 00:18:09;;;;;;;13.32;9.53;;;;;;;21.81;60.67;99746.10;1609598;89;21020;-71
2022/08/26 00:20:36;;;;;;;10.28;9.23;;;;;;;21.80;60.59;99753.26;1609606;89;21560;-71
2022/08/26 00:23:03;;;;;;;15.70;9.48;;;;;;;21.78;60.57;99753.57;1601945;89;21298;-71
2022/08/26 00:25:33;;;;;;;10.08;8.90;;;;;;;21.76;60.52;99749.00;1600374;88;21071;-71
2022/08/26 00:28:00;;;;;;;12.70;9.83;;;;;;;21.70;60.65;99750.28;1610172;88;20998;-73
2022/08/26 00:30:28;;;;;;;14.98;11.22;;;;;;;21.70;60.53;99745.61;1614178;88;21105;-76
2022/08/26 00:32:55;;;;;;;10.68;8.98;;;;;;;21.68;60.54;99744.30;1589053;88;21570;-73
2022/08/26 00:35:22;;;;;;;15.53;10.13;;;;;;;21.67;60.53;99746.83;1614598;88;21147;-75
2022/08/26 00:37:50;;;;;;;11.25;9.70;;;;;;;21.63;60.53;99741.76;1588453;88;21566;-73
2022/08/26 00:40:21;;;;;;;10.80;9.70;;;;;;;21.62;60.56;99740.14;1614069;87;21104;-68
2022/08/26 00:42:48;;;;;;;15.38;10.03;;;;;;;21.58;60.88;99739.95;1641852;87;21141;-72
2022/08/26 00:45:17;;;;;;;12.07;8.78;;;;;;;21.55;60.87;99742.53;1611920;88;21099;-73
2022/08/26 00:47:47;;;;;;;11.35;8.90;;;;;;;21.53;60.71;99740.70;1565634;90;21432;-72
2022/08/26 00:50:19;;;;;;;12.80;9.73;;;;;;;21.53;60.59;99738.77;1562593;91;21069;-70
2022/08/26 00:52:46;;;;;;;12.18;9.45;;;;;;;21.56;60.65;99742.78;1581573;89;21032;-70
2022/08/26 00:55:16;;;;;;;11.68;9.28;;;;;;;21.51;60.72;99736.09;1617658;87;21066;-70
2022/08/26 00:57:43;;;;;;;13.32;10.93;;;;;;;21.47;60.82;99737.88;1619264;87;20989;-71
2022/08/26 01:00:18;;;;;;;13.03;9.43;;;;;;;21.41;60.95;99741.33;1607995;89;21156;-71
2022/08/26 01:02:46;;;;;;;13.98;9.65;;;;;;;21.38;61.00;99733.77;1607612;89;20984;-70
2022/08/26 01:05:13;;;;;;;13.45;10.28;;;;;;;21.31;61.37;99736.96;1608039;87;21075;-73
2022/08/26 01:07:41;;;;;;;11.60;10.18;;;;;;;21.28;61.42;99736.80;1607829;89;21027;-71
2022/08/26 01:10:14;;;;;;;17.50;9.13;;;;;;;21.21;61.63;99737.27;1629817;87;20959;-72
2022/08/26 01:12:45;;;;;;;15.27;9.53;;;;;;;21.20;61.61;99730.73;1628330;87;21171;-71
2022/08/26 01:15:52;;;;;;;10.32;9.13;;;;;;;21.14;61.65;99727.37;1634300;87;21016;-71
2022/08/26 01:18:19;;;;;;;19.42;9.48;;;;;;;21.12;61.68;99733.67;1601870;87;21105;-69
2022/08/26 01:20:58;;;;;;;15.18;9.85;;;;;;;21.02;62.03;99721.66;1607651;89;21015;-66
2022/08/26 01:23:34;;;;;;;16.55;10.23;;;;;;;20.98;62.04;99728.09;1614525;87;21035;-67
2022/08/26 01:26:08;;;;;;;11.05;9.90;;;;;;;20.95;61.88;99726.00;1580912;89;21117;-67
2022/08/26 01:28:36;;;;;;;10.03;8.90;;;;;;;20.88;62.10;99723.72;1607968;89;21544;-68
2022/08/26 01:31:04;;;;;;;16.95;10.08;;;;;;;20.84;62.23;99720.81;1608032;89;21130;-68
2022/08/26 01:33:58;;;;;;;10.72;9.50;;;;;;;20.84;62.23;99720.81;1632793;87;21139;-67
2022/08/26 01:36:25;;;;;;;12.53;10.03;;;;;;;20.81;62.40;99720.66;1636863;86;21264;-70
2022/08/26 01:38:52;;;;;;;11.08;8.90;;;;;;;20.77;62.45;99714.18;1621466;87;21199;-74
2022/08/26 01:41:19;;;;;;;10.35;9.23;;;;;;;20.72;62.45;99719.23;1583531;88;21063;-68
2022/08/26 01:43:48;;;;;;;10.93;9.65;;;;;;;20.72;62.45;99719.23;1615530;88;21046;-69
2022/08/26 01:46:14;;;;;;;11.20;9.58;;;;;;;20.69;62.46;99719.87;1590289;90;21088;-68
2022/08/26 01:48:42;;;;;;;18.73;10.18;;;;;;;20.66;62.49;99714.23;1590318;90;21014;-67
2022/08/26 01:51:09;;;;;;;14.63;10.50;;;;;;;20.64;62.42;99715.91;1620385;87;21183;-68
2022/08/26 01:53:36;;;;;;;11.28;9.45;;;;;;;20.62;62.46;99718.17;1641988;87;21539;-68
2022/08/26 01:56:03;;;;;;;14.00;9.58;;;;;;;20.60;62.49;99712.77;1591629;88;21570;-68
2022/08/26 01:58:43;;;;;;;11.88;8.95;;;;;;;20.54;62.45;99708.55;1616022;87;21089;-67
2022/08/26 02:01:10;;;;;;;13.15;9.63;;;;;;;20.54;62.45;99708.55;1570412;89;21081;-67
2022/08/26 02:04:16;;;;;;;14.25;9.00;;;;;;;20.50;62.61;99708.94;1595770;90;21724;-69
2022/08/26 02:06:44;;;;;;;13.15;8.93;;;;;;;20.49;62.50;99710.05;1621419;88;21051;-66
2022/08/26 02:09:11;;;;;;;11.20;9.08;;;;;;;20.49;62.39;99706.77;1621754;88;22239;-67
2022/08/26 02:11:38;;;;;;;16.97;9.65;;;;;;;20.48;62.34;99716.08;1620457;88;21582;-67
2022/08/26 02:14:13;;;;;;;11.73;10.32;;;;;;;20.47;62.39;99706.29;1627046;88;21002;-67
2022/08/26 02:16:43;;;;;;;11.40;9.40;;;;;;;20.41;62.64;99708.91;1601088;89;21180;-67
2022/08/26 02:19:14;;;;;;;15.38;9.83;;;;;;;20.38;62.63;99709.55;1610482;86;21042;-67
2022/08/26 02:21:42;;;;;;;14.30;10.82;;;;;;;20.34;62.78;99716.17;1643079;86;21535;-67
2022/08/26 02:24:15;;;;;;;15.75;10.13;;;;;;;20.30;62.82;99712.46;1616428;88;21112;-67
2022/08/26 02:26:43;;;;;;;15.03;11.12;;;;;;;20.25;62.90;99711.75;1590477;90;21442;-68
2022/08/26 02:29:22;;;;;;;16.15;9.45;;;;;;;20.19;63.21;99707.56;1563674;90;22771;-66
2022/08/26 02:31:50;;;;;;;16.05;10.10;;;;;;;20.17;63.12;99714.69;1618620;87;21568;-67
2022/08/26 02:34:23;;;;;;;17.42;10.10;;;;;;;20.14;63.18;99709.87;1621412;88;21094;-68
2022/08/26 02:36:50;;;;;;;10.90;9.80;;;;;;;20.10;63.16;99712.95;1545867;91;21131;-66
2022/08/26 02:39:17;;;;;;;11.28;9.98;;;;;;;20.10;63.18;99708.05;1603390;89;21059;-66
2022/08/26 02:41:44;;;;;;;12.78;9.55;;;;;;;20.08;63.31;99711.11;1632516;86;22062;-66
2022/08/26 02:44:10;;;;;;;12.15;9.93;;;;;;;20.05;63.26;99708.98;1599531;88;21055;-67
2022/08/26 02:46:37;;;;;;;16.20;10.72;;;;;;;20.02;63.28;99717.25;1587537;88;21067;-68
2022/08/26 02:49:05;;;;;;;11.28;9.53;;;;;;;20.01;63.26;99719.73;1618297;88;20905;-67
2022/08/26 02:51:32;;;;;;;14.30;10.08;;;;;;;19.98;63.42;99718.19;1634364;86;21092;-68
2022/08/26 02:53:59;;;;;;;10.45;8.98;;;;;;;19.92;63.58;99707.14;1615775;87;21607;-67
2022/08/26 02:56:25;;;;;;;13.10;9.23;;;;;;;19.87;63.73;99716.26;1598279;88;20948;-67
2022/08/26 02:58:52;;;;;;;9.48;8.53;;;;;;;19.80;63.83;99718.63;1625624;86;21551;-67
2022/08/26 03:01:24;;;;;;;10.45;9.40;;;;;;;19.76;64.03;99723.66;1615650;87;21128;-68
2022/08/26 03:03:52;;;;;;;10.98;8.93;;;;;;;19.73;64.01;99723.70;1616370;88;21055;-68
2022/08/26 03:06:19;;;;;;;12.10;8.98;;;;;;;19.72;63.99;99725.37;1591117;88;21200;-68
2022/08/26 03:08:46;;;;;;;12.90;8.80;;;;;;;19.69;64.16;99724.08;1585157;90;21048;-69
2022/08/26 03:11:12;;;;;;;12.88;8.95;;;;;;;19.64;64.20;99722.83;1594450;88;22255;-68
2022/08/26 03:13:40;;;;;;;14.20;9.50;;;;;;;19.62;64.33;99729.69;1618139;88;21092;-68
2022/08/26 03:16:07;;;;;;;13.00;8.65;;;;;;;19.58;64.37;99729.52;1594826;88;21063;-71
2022/08/26 03:18:34;;;;;;;20.00;10.20;;;;;;;19.55;64.40;99722.77;1585826;88;21122;-69
2022/08/26 03:21:10;;;;;;;14.28;8.83;;;;;;;19.54;64.34;99726.60;1620078;86;21174;-69
2022/08/26 03:23:38;;;;;;;13.20;8.35;;;;;;;19.50;64.40;99729.70;1607044;87;21019;-68
2022/08/26 03:26:05;;;;;;;11.22;9.20;;;;;;;19.49;64.42;99730.81;1629242;87;20980;-70
2022/08/26 03:28:32;;;;;;;12.20;8.95;;;;;;;19.49;64.45;99734.09;1618248;88;20949;-68
2022/08/26 03:30:59;;;;;;;19.05;8.93;;;;;;;19.44;64.63;99729.55;1627148;86;21199;-70
2022/08/26 03:33:26;;;;;;;10.40;9.25;;;;;;;19.43;64.59;99732.55;1596109;89;20987;-69
2022/08/26 03:35:52;;;;;;;9.95;8.40;;;;;;;19.42;64.54;99734.50;1592019;88;21055;-70
2022/08/26 03:38:35;;;;;;;9.40;8.28;;;;;;;19.41;64.63;99740.25;1584376;90;21041;-69
2022/08/26 03:41:01;;;;;;;16.65;9.08;;;;;;;19.38;64.65;99735.39;1560670;90;21131;-69
2022/08/26 03:43:28;;;;;;;15.18;9.33;;;;;;;19.35;64.91;99736.83;1614625;88;21266;-68
2022/08/26 03:45:54;;;;;;;18.10;9.53;;;;;;;19.33;64.93;99736.89;1613846;87;21042;-69
2022/08/26 03:48:21;;;;;;;14.15;9.85;;;;;;;19.31;65.06;99730.92;1592661;88;21275;-69
2022/08/26 03:50:47;;;;;;;10.45;9.35;;;;;;;19.30;65.04;99746.48;1621955;87;21137;-70
2022/08/26 03:53:13;;;;;;;12.05;8.80;;;;;;;19.31;64.95;99745.92;1614646;88;21066;-69
2022/08/26 03:55:41;;;;;;;14.10;9.78;;;;;;;19.31;64.94;99748.66;1614375;88;21133;-69
2022/08/26 03:58:08;;;;;;;20.65;8.28;;;;;;;19.30;65.03;99746.48;1633954;87;21007;-68
2022/08/26 04:00:34;;;;;;;13.10;8.75;;;;;;;19.30;64.94;99742.39;1614586;88;21006;-69
2022/08/26 04:03:01;;;;;;;12.13;9.10;;;;;;;19.29;64.91;99745.41;1614346;88;21000;-69
2022/08/26 04:05:27;;;;;;;10.58;9.15;;;;;;;19.28;65.01;99739.14;1623054;87;21109;-71
2022/08/26 04:07:55;;;;;;;11.33;9.03;;;;;;;19.28;64.78;99736.42;1622342;87;21346;-68
2022/08/26 04:10:27;;;;;;;23.10;9.20;;;;;;;19.31;64.69;99743.20;1614459;88;21092;-68
2022/08/26 04:12:50;;;;;;;14.78;9.45;;;;;;;19.29;64.67;99742.69;1613993;88;21580;-68
2022/08/26 04:15:17;;;;;;;11.43;7.87;;;;;;;19.32;64.50;99742.09;1588905;88;21078;-69
2022/08/26 04:17:44;;;;;;;15.63;7.45;;;;;;;19.32;64.54;99736.64;1602201;88;21580;-68
2022/08/26 04:20:16;;;;;;;10.18;8.08;;;;;;;19.33;64.58;99731.44;1585666;88;21312;-66
2022/08/26 04:22:43;;;;;;;10.38;8.48;;;;;;;19.35;64.48;99732.73;1614516;88;21000;-67
2022/08/26 04:25:09;;;;;;;11.83;9.03;;;;;;;19.39;64.37;99726.10;1615737;88;21611;-67
2022/08/26 04:27:36;;;;;;;15.75;8.95;;;;;;;19.40;64.20;99727.16;1558000;90;21050;-68
2022/08/26 04:30:05;;;;;;;14.73;8.15;;;;;;;19.41;64.10;99724.70;1614760;88;21094;-70
2022/08/26 04:32:31;;;;;;;11.48;8.78;;;;;;;19.42;63.96;99722.22;1595792;87;21805;-68
2022/08/26 04:34:58;;;;;;;9.70;8.53;;;;;;;19.43;63.99;99723.81;1609467;89;21054;-72
2022/08/26 04:37:25;;;;;;;15.90;9.28;;;;;;;19.46;63.82;99720.52;1601038;89;22677;-68
2022/08/26 04:39:52;;;;;;;9.28;8.13;;;;;;;19.49;63.56;99723.98;1586247;90;21087;-67
2022/08/26 04:42:18;;;;;;;9.98;8.05;;;;;;;19.53;63.39;99724.98;1614089;88;21122;-69
2022/08/26 04:44:45;;;;;;;13.10;8.40;;;;;;;19.56;63.36;99730.39;1588989;88;21182;-68
2022/08/26 04:47:12;;;;;;;15.83;8.10;;;;;;;19.59;63.09;99730.58;1570950;90;21089;-70
2022/08/26 04:49:38;;;;;;;14.07;8.30;;;;;;;19.62;63.05;99733.79;1549002;90;21114;-68
2022/08/26 04:52:05;;;;;;;14.35;8.00;;;;;;;19.61;63.25;99728.11;1602995;88;21087;-70
2022/08/26 04:54:32;;;;;;;13.38;8.78;;;;;;;19.66;63.02;99731.53;1553820;92;21106;-68
2022/08/26 04:56:58;;;;;;;14.10;8.23;;;;;;;19.71;62.91;99732.74;1603031;88;21299;-67
2022/08/26 04:59:25;;;;;;;12.88;8.13;;;;;;;19.76;62.66;99730.48;1579284;90;20978;-69
2022/08/26 05:01:58;;;;;;;17.95;8.75;;;;;;;19.78;62.54;99721.41;1571073;91;21084;-69
2022/08/26 05:04:24;;;;;;;11.68;8.33;;;;;;;19.81;62.46;99727.60;1602597;88;21095;-69
2022/08/26 05:06:51;;;;;;;12.73;8.25;;;;;;;19.85;61.95;99725.89;1604042;87;21026;-73
2022/08/26 05:09:18;;;;;;;21.37;10.38;;;;;;;19.88;62.21;99729.35;1603087;89;21183;-70
2022/08/26 05:11:47;;;;;;;12.68;9.20;;;;;;;19.92;61.73;99727.61;1606082;88;21098;-69
2022/08/26 05:14:14;;;;;;;20.50;12.18;;;;;;;19.96;61.16;99723.14;1608577;88;21056;-70
2022/08/26 05:16:42;;;;;;;15.58;11.30;;;;;;;20.02;60.91;99732.83;1606265;88;21026;-70
2022/08/26 05:19:08;;;;;;;27.17;9.93;;;;;;;20.07;60.62;99726.42;1579579;89;21103;-69
2022/08/26 05:21:34;;;;;;;21.42;11.03;;;;;;;20.13;60.50;99726.55;1578359;90;21244;-68
2022/08/26 05:24:01;;;;;;;14.58;9.90;;;;;;;20.19;60.22;99726.68;1578451;90;21112;-67
2022/08/26 05:26:29;;;;;;;23.62;11.25;;;;;;;20.24;60.03;99726.55;1602459;88;21122;-69
2022/08/26 05:28:57;;;;;;;15.03;9.45;;;;;;;20.30;59.83;99723.91;1582307;88;21125;-70
2022/08/26 05:31:28;;;;;;;16.05;9.05;;;;;;;20.36;59.47;99729.53;1553836;92;21142;-68
2022/08/26 05:33:55;;;;;;;22.65;9.40;;;;;;;20.43;58.84;99732.63;1553694;92;22061;-68
2022/08/26 05:39:28;;;;;;;20.50;10.00;;;;;;;20.55;58.64;99727.93;1552886;91;21591;-69
2022/08/26 05:41:54;;;;;;;16.90;8.30;;;;;;;20.64;57.83;99728.21;1584652;89;21164;-70
2022/08/26 05:44:36;;;;;;;18.80;8.80;;;;;;;20.72;57.49;99734.27;1614464;88;21088;-69
2022/08/26 05:47:03;;;;;;;15.32;7.95;;;;;;;20.77;57.61;99734.13;1614990;87;21437;-70
2022/08/26 05:49:30;;;;;;;20.12;7.78;;;;;;;20.85;57.24;99734.73;1609904;88;21091;-69
2022/08/26 05:51:57;;;;;;;14.30;7.03;;;;;;;20.93;56.90;99735.88;1614522;88;21006;-68
2022/08/26 05:54:23;;;;;;;11.05;7.37;;;;;;;21.02;56.37;99742.17;1611527;88;21151;-66
2022/08/26 05:56:50;;;;;;;12.80;8.40;;;;;;;21.09;55.42;99743.89;1613680;87;21104;-66
2022/08/26 05:59:17;;;;;;;14.20;7.37;;;;;;;21.17;55.39;99739.03;1615074;87;21165;-69
2022/08/26 06:01:44;;;;;;;16.60;7.25;;;;;;;21.25;54.87;99746.44;1614459;88;20982;-68
2022/08/26 06:04:11;;;;;;;12.88;7.47;;;;;;;21.34;54.83;99748.41;1614458;88;21035;-68
2022/08/26 06:06:40;;;;;;;13.80;7.50;;;;;;;21.48;54.55;99744.97;1614177;88;21154;-69
2022/08/26 06:09:06;;;;;;;15.45;6.50;;;;;;;21.48;54.55;99744.97;1634064;87;21059;-69
2022/08/26 06:11:34;;;;;;;8.73;6.40;;;;;;;21.54;53.97;99740.36;1592973;87;22029;-69
2022/08/26 06:14:03;;;;;;;11.18;6.47;;;;;;;21.68;53.56;99745.67;1589061;90;21586;-68
2022/08/26 06:16:34;;;;;;;13.58;7.15;;;;;;;21.83;52.97;99747.13;1600151;88;21520;-67
2022/08/26 06:19:02;;;;;;;17.20;7.80;;;;;;;21.83;52.97;99747.13;1628366;87;21041;-68
2022/08/26 06:21:34;;;;;;;20.02;6.97;;;;;;;21.93;52.85;99752.28;1615265;87;21073;-69
2022/08/26 06:26:53;;;;;;;13.13;8.40;;;;;;;22.10;52.63;99742.72;1587549;89;21048;-68
2022/08/26 06:29:21;;;;;;;14.10;7.20;;;;;;;22.20;51.72;99746.49;1619362;87;21033;-68
2022/08/26 06:31:48;;;;;;;13.13;7.17;;;;;;;22.31;51.58;99748.30;1614428;87;21053;-68
2022/08/26 06:34:16;;;;;;;10.38;9.00;;;;;;;22.40;51.49;99735.38;1630152;87;21034;-68
2022/08/26 06:36:43;;;;;;;19.25;12.55;;;;;;;22.46;51.35;99733.52;1588074;89;21232;-69
2022/08/26 06:39:12;;;;;;;23.18;9.35;;;;;;;22.54;51.18;99732.67;1644878;85;20998;-68
2022/08/26 06:41:40;;;;;;;15.93;9.08;;;;;;;22.63;51.12;99732.66;1647970;86;21585;-71
2022/08/26 06:44:08;;;;;;;19.80;10.45;;;;;;;22.72;50.65;99736.20;1626329;87;21096;-70
2022/08/26 06:46:35;;;;;;;13.18;8.20;;;;;;;22.79;50.60;99732.36;1633150;87;21096;-67
2022/08/26 06:49:02;;;;;;;10.32;8.08;;;;;;;22.88;50.40;99736.43;1624352;86;21915;-69
2022/08/26 06:51:32;;;;;;;8.68;7.12;;;;;;;22.95;50.00;99731.25;1636148;87;20962;-69
2022/08/26 06:53:59;;;;;;;13.88;6.65;;;;;;;23.02;49.60;99736.44;1635423;87;21593;-70
2022/08/26 06:56:35;;;;;;;14.05;6.33;;;;;;;23.11;49.46;99737.78;1626835;86;20982;-72
2022/08/26 06:59:02;;;;;;;20.65;6.85;;;;;;;23.21;49.66;99736.59;1628401;86;21038;-69
2022/08/26 07:01:31;;;;;;;9.98;5.47;;;;;;;23.31;49.88;99738.95;1614200;88;21593;-69
2022/08/26 07:03:59;;;;;;;15.93;6.60;;;;;;;23.39;49.94;99731.22;1577791;89;21069;-69
2022/08/26 07:06:27;;;;;;;9.73;7.35;;;;;;;23.49;49.70;99736.34;1627995;86;21034;-70
2022/08/26 07:09:04;;;;;;;15.18;6.40;;;;;;;23.56;49.12;99726.99;1642031;86;21049;-71
2022/08/26 07:11:28;;;;;;;19.90;6.08;;;;;;;23.63;49.15;99723.16;1621350;88;21073;-70
2022/08/26 07:13:55;;;;;;;16.02;6.00;;;;;;;23.73;48.90;99741.17;1621941;86;21488;-69
2022/08/26 07:16:22;;;;;;;14.75;6.62;;;;;;;23.82;48.81;99742.70;1620982;88;21031;-69
2022/08/26 07:18:51;;;;;;;18.85;6.58;;;;;;;23.92;48.83;99733.81;1627394;86;21161;-69
2022/08/26 07:21:17;;;;;;;11.25;5.90;;;;;;;24.01;48.34;99733.97;1624556;87;21046;-68
2022/08/26 07:23:44;;;;;;;10.03;5.33;;;;;;;24.09;47.33;99735.81;1601108;88;21140;-70
2022/08/26 07:26:17;;;;;;;13.13;6.05;;;;;;;24.19;46.74;99736.80;1569276;91;21253;-68
2022/08/26 07:28:45;;;;;;;26.33;6.00;;;;;;;24.30;46.18;99734.43;1569811;89;21577;-70
2022/08/26 07:31:13;;;;;;;12.15;5.45;;;;;;;24.40;45.94;99735.94;1627136;88;21545;-69
2022/08/26 07:33:41;;;;;;;15.20;5.40;;;;;;;24.47;45.48;99729.30;1641471;86;21038;-69
2022/08/26 07:36:08;;;;;;;19.07;6.03;;;;;;;24.55;45.00;99719.59;1629880;86;21078;-68
2022/08/26 07:38:39;;;;;;;11.95;5.55;;;;;;;24.65;44.17;99718.34;1590663;89;22361;-68
2022/08/26 07:41:07;;;;;;;13.32;6.15;;;;;;;24.75;44.25;99724.73;1602464;89;21003;-68
2022/08/26 07:43:34;;;;;;;14.28;5.85;;;;;;;24.84;44.35;99717.20;1615614;88;21075;-69
2022/08/26 07:46:07;;;;;;;16.90;6.10;;;;;;;24.97;43.51;99719.40;1625259;88;21011;-69
2022/08/26 07:48:34;;;;;;;16.45;5.83;;;;;;;25.11;43.19;99719.84;1602723;88;21079;-68
2022/08/26 07:51:01;;;;;;;15.72;5.78;;;;;;;25.25;42.68;99716.16;1586772;88;21629;-67
2022/08/26 07:53:28;;;;;;;27.07;5.35;;;;;;;25.35;42.64;99716.25;1589893;88;21567;-70
2022/08/26 07:55:54;;;;;;;12.18;5.55;;;;;;;25.47;42.39;99714.83;1627426;87;21131;-68
2022/08/26 07:58:21;;;;;;;13.48;5.15;;;;;;;25.57;41.45;99713.81;1586643;89;21524;-68
2022/08/26 08:00:47;;;;;;;11.53;4.53;;;;;;;25.68;41.39;99705.05;1585350;90;21108;-72
2022/08/26 08:03:16;;;;;;;22.80;5.20;;;;;;;25.78;40.96;99703.18;1594444;88;21605;-69
2022/08/26 08:05:42;;;;;;;15.95;4.28;;;;;;;25.90;40.47;99698.41;1600179;88;20991;-74
2022/08/26 08:08:09;;;;;;;11.68;5.60;;;;;;;26.02;40.33;99694.80;1591540;88;21032;-67
2022/08/26 08:10:37;;;;;;;16.95;5.80;;;;;;;26.13;39.83;99693.14;1629406;88;21053;-68
2022/08/26 08:13:05;;;;;;;7.42;4.15;;;;;;;26.24;39.27;99698.95;1600134;88;21094;-69
2022/08/26 08:15:33;;;;;;;15.70;5.03;;;;;;;26.32;39.34;99694.67;1615910;88;21048;-68
2022/08/26 08:18:00;;;;;;;14.75;4.35;;;;;;;26.44;38.91;99698.71;1588384;88;21115;-68
2022/08/26 08:20:28;;;;;;;6.35;3.33;;;;;;;26.55;38.51;99696.80;1607430;88;21008;-69
2022/08/26 08:22:55;;;;;;;16.95;5.17;;;;;;;26.65;38.26;99690.17;1576651;88;21057;-68
2022/08/26 08:25:22;;;;;;;13.00;5.00;;;;;;;26.76;38.34;99687.68;1629486;88;21093;-68
2022/08/26 08:27:49;;;;;;;18.45;3.52;;;;;;;26.84;38.10;99688.87;1619412;88;21278;-68
2022/08/26 08:30:18;;;;;;;16.35;3.75;;;;;;;26.93;37.16;99684.55;1585346;90;21079;-68
2022/08/26 08:32:45;;;;;;;14.75;4.33;;;;;;;27.02;37.09;99687.12;1589097;90;21042;-69
2022/08/26 08:35:14;;;;;;;16.65;5.03;;;;;;;27.12;36.26;99680.47;1599901;88;21171;-73
2022/08/26 08:37:42;;;;;;;21.75;5.08;;;;;;;27.21;35.63;99676.92;1604951;88;21023;-68
2022/08/26 08:40:11;;;;;;;10.58;5.12;;;;;;;27.29;35.54;99679.23;1590523;88;21902;-67
2022/08/26 08:42:48;;;;;;;12.10;4.60;;;;;;;27.37;34.96;99671.34;1566758;89;21059;-71
2022/08/26 08:45:38;;;;;;;16.65;4.62;;;;;;;27.47;34.48;99671.34;1588956;88;21570;-68
2022/08/26 08:48:17;;;;;;;14.60;4.33;;;;;;;27.57;34.45;99670.23;1587946;88;21119;-69
2022/08/26 08:51:06;;;;;;;20.77;7.20;;;;;;;27.68;34.36;99662.93;1596255;89;21130;-68
2022/08/26 08:53:37;;;;;;;16.87;4.60;;;;;;;27.83;34.19;99664.59;1595864;89;21135;-68
2022/08/26 08:56:27;;;;;;;18.52;4.37;;;;;;;27.96;33.78;99658.52;1577776;89;20990;-69
2022/08/26 08:59:23;;;;;;;12.65;3.75;;;;;;;28.08;33.58;99656.98;1594718;89;21079;-67
2022/08/26 09:02:05;;;;;;;33.00;4.95;;;;;;;28.22;32.67;99666.73;1629237;86;21323;-67
2022/08/26 09:05:06;;;;;;;28.65;3.67;;;;;;;28.35;32.33;99657.07;1596124;89;21019;-67
2022/08/26 09:07:49;;;;;;;21.90;3.95;;;;;;;28.48;31.97;99655.16;1629453;88;21173;-67
2022/08/26 09:10:51;;;;;;;18.25;4.35;;;;;;;28.63;31.60;99656.77;1598365;88;20979;-69
2022/08/26 09:13:19;;;;;;;15.10;2.72;;;;;;;28.70;31.50;99657.66;1628775;86;21127;-68
2022/08/26 09:16:18;;;;;;;16.65;3.25;;;;;;;28.78;31.56;99647.52;1591185;89;21120;-68
2022/08/26 09:19:00;;;;;;;13.85;4.35;;;;;;;28.84;31.25;99647.42;1591795;89;21027;-68
2022/08/26 09:21:26;;;;;;;20.80;2.87;;;;;;;28.91;30.20;99655.27;1621755;86;21225;-68
2022/08/26 09:23:54;;;;;;;11.97;3.35;;;;;;;29.03;28.09;99651.45;1570600;89;21123;-67
2022/08/26 09:26:39;;;;;;;10.10;2.62;;;;;;;29.13;27.67;99641.11;1624580;86;21006;-66
2022/08/26 09:29:17;;;;;;;7.12;1.75;;;;;;;29.22;27.42;99638.86;1620466;86;21090;-71
2022/08/26 09:31:44;;;;;;;24.67;2.75;;;;;;;29.26;26.68;99647.20;1629554;88;21096;-69
2022/08/26 09:34:26;;;;;;;28.80;3.12;;;;;;;29.32;26.29;99648.52;1629192;88;21261;-68
2022/08/26 09:36:56;;;;;;;12.50;3.52;;;;;;;29.37;26.06;99642.64;1634098;86;21075;-68
2022/08/26 09:39:33;;;;;;;18.60;3.25;;;;;;;29.37;25.90;99636.52;1624375;86;21022;-71
2022/08/26 09:42:21;;;;;;;16.07;2.62;;;;;;;29.40;26.34;99630.83;1620247;88;21536;-66
2022/08/26 09:45:04;;;;;;;11.75;2.70;;;;;;;29.49;26.25;99643.80;1585728;88;21151;-71
2022/08/26 09:47:48;;;;;;;5.90;2.17;;;;;;;29.60;26.19;99651.64;1642652;86;22021;-71
2022/08/26 09:50:34;;;;;;;23.80;2.95;;;;;;;29.72;25.92;99650.59;1583757;88;21414;-69
2022/08/26 09:53:27;;;;;;;9.78;2.33;;;;;;;29.82;25.51;99645.77;1564486;90;21015;-68
2022/08/26 09:56:19;;;;;;;23.05;3.77;;;;;;;29.89;24.45;99637.53;1593306;88;21110;-72
2022/08/26 09:58:46;;;;;;;4.73;2.30;;;;;;;29.91;24.27;99631.03;1594401;88;21058;-71
2022/08/26 10:01:32;;;;;;;11.38;4.05;;;;;;;29.94;24.70;99641.34;1586580;89;21489;-75
2022/08/26 10:04:20;;;;;;;20.92;2.42;;;;;;;29.97;24.84;99639.22;1597845;88;21071;-74
2022/08/26 10:07:02;;;;;;;13.05;2.12;;;;;;;30.01;23.36;99637.86;1648235;86;21007;-71
2022/08/26 10:09:35;;;;;;;7.30;1.95;;;;;;;30.00;23.57;99640.42;1645532;86;21083;-71
2022/08/26 10:12:07;;;;;;;13.50;3.02;;;;;;;30.02;23.71;99632.53;1596216;89;21076;-71
2022/08/26 10:14:48;;;;;;;13.83;2.50;;;;;;;30.04;23.72;99635.11;1632256;86;21617;-70
2022/08/26 10:17:52;;;;;;;13.40;2.10;;;;;;;30.11;24.05;99629.65;1589410;88;21051;-68
2022/08/26 10:20:27;;;;;;;13.30;2.50;;;;;;;30.20;23.09;99634.28;1618164;86;21540;-69
2022/08/26 10:23:12;;;;;;;4.65;1.80;;;;;;;30.25;23.47;99631.75;1598743;88;21043;-68
2022/08/26 10:25:50;;;;;;;14.03;2.37;;;;;;;30.29;23.57;99629.20;1628302;86;21063;-68
2022/08/26 10:28:46;;;;;;;27.58;3.55;;;;;;;30.35;24.01;99628.86;1638629;86;21059;-69
2022/08/26 10:31:35;;;;;;;12.45;3.05;;;;;;;30.44;23.21;99632.10;1610146;88;21594;-69
2022/08/26 10:34:02;;;;;;;16.37;3.70;;;;;;;30.54;22.48;99630.03;1628158;86;21171;-69
2022/08/26 10:36:48;;;;;;;15.35;2.02;;;;;;;30.59;22.06;99641.59;1616533;86;21115;-67
2022/08/26 10:39:32;;;;;;;8.38;2.95;;;;;;;30.58;21.40;99637.80;1558921;88;21578;-67
2022/08/26 10:42:03;;;;;;;5.45;2.12;;;;;;;30.59;21.67;99633.84;1557873;90;21193;-69
2022/08/26 10:44:32;;;;;;;13.35;2.30;;;;;;;30.62;20.16;99638.02;1593077;88;21088;-69
2022/08/26 10:47:26;;;;;;;8.45;3.12;;;;;;;30.61;20.96;99648.92;1553026;90;21069;-70
2022/08/26 10:49:53;;;;;;;15.68;2.65;;;;;;;30.70;21.41;99644.41;1545211;90;21638;-74
2022/08/26 10:52:40;;;;;;;19.65;4.78;;;;;;;30.81;21.42;99645.30;1564256;90;21110;-71
2022/08/26 10:55:32;;;;;;;13.08;3.67;;;;;;;30.90;21.73;99642.17;1554967;92;21567;-71
2022/08/26 10:58:25;;;;;;;13.53;3.50;;;;;;;30.92;21.77;99642.59;1553958;92;21037;-71
2022/08/26 11:04:00;;;;;;;6.15;2.67;;;;;;;30.99;22.02;99637.86;1548507;92;21211;-74
2022/08/26 11:06:28;;;;;;;24.32;5.65;;;;;;;30.95;22.01;99635.66;1555104;90;21111;-72
2022/08/26 11:08:57;;;;;;;8.13;3.52;;;;;;;30.94;22.39;99624.93;1534307;90;21140;-76
2022/08/26 11:11:45;;;;;;;6.45;3.08;;;;;;;31.03;22.45;99633.77;1542786;90;21186;-74
2022/08/26 11:14:24;;;;;;;8.03;2.10;;;;;;;31.13;22.47;99626.86;1586150;87;21055;-70
2022/08/26 11:16:53;;;;;;;23.12;3.95;;;;;;;31.22;22.56;99634.06;1613836;88;21052;-69
2022/08/26 11:19:40;;;;;;;5.92;2.90;;;;;;;31.24;22.41;99632.47;1614417;88;21105;-70
2022/08/26 11:22:33;;;;;;;9.95;2.87;;;;;;;31.32;22.56;99637.49;1623164;87;21269;-70
2022/08/26 11:25:04;;;;;;;9.83;2.77;;;;;;;31.38;22.14;99633.13;1640561;87;20963;-69
2022/08/26 11:27:40;;;;;;;5.53;2.20;;;;;;;31.39;22.58;99634.13;1627919;87;21551;-69
2022/08/26 11:30:21;;;;;;;10.53;3.52;;;;;;;31.48;23.13;99633.17;1615512;87;21668;-68
2022/08/26 11:32:56;;;;;;;14.28;3.50;;;;;;;31.58;23.09;99638.02;1634461;87;21093;-74
2022/08/26 11:35:38;;;;;;;12.85;3.42;;;;;;;31.59;23.07;99627.69;1614053;88;22024;-72
2022/08/26 11:38:19;;;;;;;14.65;3.87;;;;;;;31.62;23.21;99628.28;1614274;88;21567;-71
2022/08/26 11:40:56;;;;;;;8.95;3.25;;;;;;;31.62;23.37;99628.28;1585180;88;21098;-71
2022/08/26 11:43:27;;;;;;;19.82;3.33;;;;;;;31.63;22.28;99633.25;1625187;86;21167;-72
2022/08/26 11:46:10;;;;;;;18.12;3.70;;;;;;;31.67;21.42;99629.30;1621348;88;21580;-73
2022/08/26 11:48:41;;;;;;;16.32;3.47;;;;;;;31.66;21.62;99629.67;1585390;90;21183;-75
2022/08/26 11:51:16;;;;;;;10.75;3.60;;;;;;;31.65;21.99;99625.33;1588694;88;21062;-75
2022/08/26 11:53:46;;;;;;;13.83;3.70;;;;;;;31.67;21.55;99621.54;1628896;88;21068;-76